createdAt,value
2018-08-23T00:00:43.515Z,101168.16
2018-08-23T00:01:49.018Z,101163.11
2018-08-23T00:02:55.414Z,101166.64
2018-08-23T00:04:05.733Z,101160.36
2018-08-23T00:05:11.234Z,101161.30
2018-08-23T00:06:16.851Z,101158.99
2018-08-23T00:07:22.607Z,101159.75
2018-08-23T00:08:28.086Z,101158.23
2018-08-23T00:09:35.658Z,101160.66
2018-08-23T00:10:41.125Z,101160.83
2018-08-23T00:11:47.711Z,101158.16
2018-08-23T00:12:59.716Z,101155.24
2018-08-23T00:14:05.297Z,101154.20
2018-08-23T00:15:15.244Z,101156.94
2018-08-23T00:16:33.763Z,101150.66
2018-08-23T00:17:46.071Z,101157.27
2018-08-23T00:18:51.693Z,101154.56
2018-08-23T00:19:57.508Z,101158.84
2018-08-23T00:21:03.707Z,101156.55
2018-08-23T00:22:12.287Z,101161.59
2018-08-23T00:23:18.347Z,101160.36
2018-08-23T00:24:24.637Z,101158.23
2018-08-23T00:25:30.282Z,101160.22
2018-08-23T00:26:36.544Z,101149.91
2018-08-23T00:27:43.375Z,101151.53
2018-08-23T00:28:48.958Z,101151.67
2018-08-23T00:29:54.489Z,101151.67
2018-08-23T00:31:00.102Z,101143.66
2018-08-23T00:32:07.783Z,101147.02
2018-08-23T00:33:13.237Z,101144.81
2018-08-23T00:34:18.773Z,101136.41
2018-08-23T00:35:25.091Z,101142.83
2018-08-23T00:36:30.696Z,101142.50
2018-08-23T00:37:38.593Z,101139.30
2018-08-23T00:38:44.197Z,101141.89
2018-08-23T00:39:49.809Z,101138.40
2018-08-23T00:40:55.250Z,101136.70
2018-08-23T00:42:05.494Z,101133.20
2018-08-23T00:43:12.874Z,101134.18
2018-08-23T00:44:18.961Z,101130.83
2018-08-23T00:45:24.488Z,101125.70
2018-08-23T00:46:30.033Z,101127.41
2018-08-23T00:47:35.576Z,101130.47
2018-08-23T00:48:41.025Z,101125.64
2018-08-23T00:49:47.005Z,101126.11
2018-08-23T00:50:57.593Z,101120.66
2018-08-23T00:52:03.297Z,101122.06
2018-08-23T00:53:08.806Z,101114.36
2018-08-23T00:54:15.402Z,101122.14
2018-08-23T00:55:27.678Z,101116.88
2018-08-23T00:56:33.173Z,101117.85
2018-08-23T00:57:38.877Z,101115.79
2018-08-23T00:59:03.369Z,101111.45
2018-08-23T01:00:08.939Z,101116.23
2018-08-23T01:01:15.597Z,101113.05
2018-08-23T01:02:21.053Z,101110.29
2018-08-23T01:03:26.568Z,101110.53
2018-08-23T01:04:33.550Z,101109.38
2018-08-23T01:05:40.288Z,101107.13
2018-08-23T01:06:46.366Z,101106.88
2018-08-23T01:07:52.968Z,101102.38
2018-08-23T01:08:58.642Z,101100.97
2018-08-23T01:10:04.137Z,101104.26
2018-08-23T01:11:10.592Z,101093.42
2018-08-23T01:12:16.300Z,101094.28
2018-08-23T01:13:21.837Z,101095.72
2018-08-23T01:14:27.316Z,101103.60
2018-08-23T01:15:33.454Z,101095.78
2018-08-23T01:16:38.938Z,101093.00
2018-08-23T01:17:44.537Z,101092.31
2018-08-23T01:18:50.232Z,101095.53
2018-08-23T01:19:59.530Z,101091.64
2018-08-23T01:21:09.812Z,101093.14
2018-08-23T01:22:15.388Z,101090.39
2018-08-23T01:23:22.394Z,101090.33
2018-08-23T01:24:31.442Z,101086.37
2018-08-23T01:25:39.213Z,101084.45
2018-08-23T01:26:45.595Z,101083.22
2018-08-23T01:27:51.131Z,101081.78
2018-08-23T01:28:56.560Z,101085.53
2018-08-23T01:30:02.063Z,101081.16
2018-08-23T01:31:28.868Z,101080.17
2018-08-23T01:32:34.477Z,101073.27
2018-08-23T01:33:39.918Z,101080.35
2018-08-23T01:34:45.877Z,101080.27
2018-08-23T01:35:52.359Z,101079.66
2018-08-23T01:36:57.862Z,101081.36
2018-08-23T01:38:03.317Z,101079.30
2018-08-23T01:39:13.369Z,101078.34
2018-08-23T01:40:18.935Z,101073.39
2018-08-23T01:41:24.468Z,101075.98
2018-08-23T01:42:35.217Z,101075.15
2018-08-23T01:43:43.213Z,101071.56
2018-08-23T01:44:49.739Z,101070.33
2018-08-23T01:45:55.350Z,101069.30
2018-08-23T01:47:03.244Z,101069.66
2018-08-23T01:48:09.977Z,101064.88
2018-08-23T01:49:15.608Z,101065.70
2018-08-23T01:50:21.129Z,101073.48
2018-08-23T01:51:26.556Z,101063.52
2018-08-23T01:52:33.341Z,101063.05
2018-08-23T01:53:39.546Z,101069.53
2018-08-23T01:54:46.243Z,101062.58
2018-08-23T01:55:51.749Z,101062.74
2018-08-23T01:56:57.812Z,101061.02
2018-08-23T01:58:03.286Z,101061.98
2018-08-23T01:59:08.726Z,101068.09
2018-08-23T02:00:18.167Z,101063.52
2018-08-23T02:01:23.712Z,101061.95
2018-08-23T02:02:29.281Z,101064.38
2018-08-23T02:03:34.813Z,101063.48
2018-08-23T02:04:40.314Z,101058.53
2018-08-23T02:05:46.895Z,101062.12
2018-08-23T02:06:52.516Z,101059.44
2018-08-23T02:07:58.028Z,101057.91
2018-08-23T02:09:04.377Z,101057.44
2018-08-23T02:10:10.094Z,101053.66
2018-08-23T02:11:16.106Z,101050.73
2018-08-23T02:12:21.747Z,101053.92
2018-08-23T02:13:28.981Z,101052.00
2018-08-23T02:14:38.469Z,101049.41
2018-08-23T02:15:48.897Z,101053.16
2018-08-23T02:16:54.662Z,101051.03
2018-08-23T02:18:00.111Z,101049.20
2018-08-23T02:19:05.805Z,101041.30
2018-08-23T02:20:11.330Z,101039.14
2018-08-23T02:21:16.959Z,101041.30
2018-08-23T02:22:22.449Z,101037.91
2018-08-23T02:23:27.877Z,101034.89
2018-08-23T02:24:36.125Z,101033.13
2018-08-23T02:25:42.080Z,101033.53
2018-08-23T02:26:47.639Z,101030.74
2018-08-23T02:28:03.832Z,101036.78
2018-08-23T02:29:09.322Z,101039.21
2018-08-23T02:30:15.326Z,101032.17
2018-08-23T02:31:20.826Z,101035.66
2018-08-23T02:32:26.433Z,101028.05
2018-08-23T02:33:31.896Z,101030.05
2018-08-23T02:34:43.890Z,101025.93
2018-08-23T02:36:19.390Z,101031.04
2018-08-23T02:37:25.076Z,101030.08
2018-08-23T02:38:30.837Z,101029.15
2018-08-23T02:39:36.381Z,101022.73
2018-08-23T02:40:41.939Z,101026.86
2018-08-23T02:41:48.434Z,101024.86
2018-08-23T02:42:54.054Z,101023.64
2018-08-23T02:43:59.673Z,101019.29
2018-08-23T02:45:09.229Z,101024.27
2018-08-23T02:46:14.884Z,101018.92
2018-08-23T02:47:20.441Z,101015.56
2018-08-23T02:48:25.988Z,101018.33
2018-08-23T02:49:32.085Z,101016.16
2018-08-23T02:50:37.755Z,101020.91
2018-08-23T02:51:48.234Z,101016.16
2018-08-23T02:52:53.850Z,101015.56
2018-08-23T02:53:59.551Z,101013.91
2018-08-23T02:55:05.137Z,101010.36
2018-08-23T02:56:14.168Z,101012.05
2018-08-23T02:57:19.673Z,101012.95
2018-08-23T02:58:26.161Z,101013.88
2018-08-23T02:59:32.062Z,101015.11
2018-08-23T03:00:42.721Z,101019.42
2018-08-23T03:01:50.346Z,101015.41
2018-08-23T03:02:55.995Z,101012.05
2018-08-23T03:04:12.975Z,101008.77
2018-08-23T03:05:22.592Z,101009.66
2018-08-23T03:06:34.872Z,101009.30
2018-08-23T03:07:41.029Z,101006.17
2018-08-23T03:08:46.859Z,101007.87
2018-08-23T03:09:52.329Z,101002.42
2018-08-23T03:10:57.814Z,101008.77
2018-08-23T03:12:18.838Z,100995.34
2018-08-23T03:13:27.001Z,101004.08
2018-08-23T03:14:32.454Z,101006.13
2018-08-23T03:15:37.940Z,101007.79
2018-08-23T03:17:14.114Z,101003.31
2018-08-23T03:18:19.682Z,101004.55
2018-08-23T03:19:25.146Z,101005.47
2018-08-23T03:20:30.729Z,101003.14
2018-08-23T03:21:36.217Z,101001.15
2018-08-23T03:22:42.444Z,101005.16
2018-08-23T03:23:48.173Z,100999.55
2018-08-23T03:24:55.390Z,101001.15
2018-08-23T03:26:00.808Z,100996.69
2018-08-23T03:27:06.262Z,100993.10
2018-08-23T03:28:12.286Z,100997.22
2018-08-23T03:29:18.010Z,100995.03
2018-08-23T03:30:24.214Z,100991.98
2018-08-23T03:31:29.658Z,100990.32
2018-08-23T03:32:35.085Z,100996.69
2018-08-23T03:33:40.514Z,100997.16
2018-08-23T03:34:46.099Z,100991.80
2018-08-23T03:35:53.621Z,101003.73
2018-08-23T03:36:59.193Z,100995.70
2018-08-23T03:38:04.682Z,100999.52
2018-08-23T03:39:10.681Z,100995.52
2018-08-23T03:40:17.139Z,100999.33
2018-08-23T03:41:23.764Z,101000.81
2018-08-23T03:42:29.589Z,100994.88
2018-08-23T03:43:35.123Z,100992.35
2018-08-23T03:44:40.589Z,100992.75
2018-08-23T03:45:46.662Z,100994.17
2018-08-23T03:46:55.417Z,100994.70
2018-08-23T03:48:00.889Z,100993.47
2018-08-23T03:49:06.592Z,100995.23
2018-08-23T03:50:12.008Z,100994.63
2018-08-23T03:51:18.004Z,100991.87
2018-08-23T03:52:27.529Z,100991.00
2018-08-23T03:53:49.180Z,100989.28
2018-08-23T03:54:59.720Z,100987.05
2018-08-23T03:56:10.162Z,100989.11
2018-08-23T03:57:18.481Z,100981.34
2018-08-23T03:58:24.024Z,100989.94
2018-08-23T03:59:29.757Z,100992.28
2018-08-23T04:00:40.321Z,100984.12
2018-08-23T04:01:45.902Z,100985.34
2018-08-23T04:02:52.269Z,100982.83
2018-08-23T04:03:57.954Z,100986.92
2018-08-23T04:05:12.311Z,100979.23
2018-08-23T04:06:32.528Z,100982.05
2018-08-23T04:07:39.577Z,100975.59
2018-08-23T04:08:46.574Z,100976.23
2018-08-23T04:09:52.468Z,100975.70
2018-08-23T04:10:57.873Z,100977.00
2018-08-23T04:12:05.651Z,100971.52
2018-08-23T04:13:11.263Z,100969.02
2018-08-23T04:14:17.195Z,100976.41
2018-08-23T04:15:26.077Z,100971.23
2018-08-23T04:16:32.634Z,100977.58
2018-08-23T04:17:38.069Z,100973.76
2018-08-23T04:18:43.588Z,100971.30
2018-08-23T04:19:50.394Z,100971.17
2018-08-23T04:20:57.458Z,100970.07
2018-08-23T04:22:02.930Z,100966.25
2018-08-23T04:23:08.385Z,100966.89
2018-08-23T04:24:14.029Z,100973.89
2018-08-23T04:25:19.858Z,100968.71
2018-08-23T04:26:26.543Z,100962.88
2018-08-23T04:27:31.963Z,100967.72
2018-08-23T04:28:37.429Z,100963.60
2018-08-23T04:29:47.942Z,100965.64
2018-08-23T04:30:53.411Z,100969.00
2018-08-23T04:31:58.933Z,100969.20
2018-08-23T04:33:04.408Z,100973.47
2018-08-23T04:34:09.871Z,100968.83
2018-08-23T04:35:34.636Z,100966.30
2018-08-23T04:36:40.507Z,100973.88
2018-08-23T04:37:46.271Z,100969.00
2018-08-23T04:38:55.762Z,100972.36
2018-08-23T04:40:06.210Z,100973.19
2018-08-23T04:41:13.666Z,100973.53
2018-08-23T04:42:19.534Z,100973.47
2018-08-23T04:43:25.418Z,100972.60
2018-08-23T04:44:42.721Z,100973.41
2018-08-23T04:45:48.521Z,100977.78
2018-08-23T04:46:54.049Z,100975.59
2018-08-23T04:48:09.509Z,100973.41
2018-08-23T04:49:15.116Z,100973.71
2018-08-23T04:50:20.745Z,100975.83
2018-08-23T04:51:26.224Z,100977.13
2018-08-23T04:52:31.710Z,100971.59
2018-08-23T04:53:37.162Z,100976.70
2018-08-23T04:54:42.657Z,100976.17
2018-08-23T04:55:48.191Z,100974.11
2018-08-23T04:56:53.831Z,100969.13
2018-08-23T04:58:00.283Z,100973.78
2018-08-23T04:59:06.154Z,100974.77
2018-08-23T05:00:11.636Z,100970.58
2018-08-23T05:01:17.384Z,100972.64
2018-08-23T05:02:22.970Z,100967.84
2018-08-23T05:03:28.441Z,100964.89
2018-08-23T05:04:33.961Z,100960.67
2018-08-23T05:05:39.366Z,100961.31
2018-08-23T05:06:45.151Z,100958.07
2018-08-23T05:07:50.731Z,100958.59
2018-08-23T05:08:56.139Z,100953.13
2018-08-23T05:10:01.809Z,100948.19
2018-08-23T05:11:07.451Z,100951.81
2018-08-23T05:12:13.014Z,100949.72
2018-08-23T05:13:18.514Z,100953.53
2018-08-23T05:14:23.969Z,100952.18
2018-08-23T05:15:29.504Z,100951.98
2018-08-23T05:16:35.101Z,100947.94
2018-08-23T05:17:41.077Z,100945.69
2018-08-23T05:18:46.682Z,100949.27
2018-08-23T05:19:52.208Z,100950.20
2018-08-23T05:20:57.687Z,100956.84
2018-08-23T05:22:03.106Z,100954.02
2018-08-23T05:23:08.620Z,100952.89
2018-08-23T05:24:14.766Z,100954.89
2018-08-23T05:25:22.455Z,100955.22
2018-08-23T05:26:27.985Z,100951.50
2018-08-23T05:27:35.372Z,100955.38
2018-08-23T05:28:43.637Z,100954.28
2018-08-23T05:29:49.161Z,100954.08
2018-08-23T05:30:54.773Z,100960.55
2018-08-23T05:32:00.269Z,100959.58
2018-08-23T05:33:09.913Z,100958.15
2018-08-23T05:34:15.493Z,100957.52
2018-08-23T05:35:21.177Z,100956.06
2018-08-23T05:36:26.634Z,100957.20
2018-08-23T05:37:32.053Z,100952.78
2018-08-23T05:38:37.533Z,100958.40
2018-08-23T05:39:52.365Z,100955.27
2018-08-23T05:41:02.941Z,100960.41
2018-08-23T05:42:08.413Z,100956.69
2018-08-23T05:43:14.698Z,100954.86
2018-08-23T05:44:20.810Z,100956.23
2018-08-23T05:45:37.019Z,100955.03
2018-08-23T05:46:47.841Z,100954.58
2018-08-23T05:47:53.350Z,100954.66
2018-08-23T05:48:58.782Z,100952.14
2018-08-23T05:50:04.272Z,100954.05
2018-08-23T05:51:12.056Z,100953.66
2018-08-23T05:52:17.636Z,100951.69
2018-08-23T05:53:23.113Z,100954.20
2018-08-23T05:54:28.618Z,100950.38
2018-08-23T05:55:34.069Z,100950.95
2018-08-23T05:56:39.545Z,100949.72
2018-08-23T05:57:45.277Z,100947.55
2018-08-23T05:58:50.924Z,100947.77
2018-08-23T05:59:56.624Z,100946.53
2018-08-23T06:01:02.554Z,100951.89
2018-08-23T06:02:08.078Z,100950.33
2018-08-23T06:03:14.964Z,100946.52
2018-08-23T06:04:36.013Z,100950.33
2018-08-23T06:05:41.448Z,100949.19
2018-08-23T06:06:47.017Z,100943.15
2018-08-23T06:07:52.542Z,100949.22
2018-08-23T06:09:00.699Z,100950.67
2018-08-23T06:10:06.318Z,100950.67
2018-08-23T06:11:12.850Z,100946.75
2018-08-23T06:12:18.464Z,100953.30
2018-08-23T06:13:24.089Z,100949.02
2018-08-23T06:14:29.572Z,100949.77
2018-08-23T06:15:39.152Z,100947.44
2018-08-23T06:16:49.491Z,100948.38
2018-08-23T06:17:54.943Z,100952.39
2018-08-23T06:19:00.580Z,100956.98
2018-08-23T06:20:06.583Z,100950.42
2018-08-23T06:21:12.059Z,100953.61
2018-08-23T06:22:17.614Z,100954.15
2018-08-23T06:23:27.639Z,100955.91
2018-08-23T06:24:33.141Z,100960.44
2018-08-23T06:25:38.651Z,100959.84
2018-08-23T06:26:49.426Z,100954.49
2018-08-23T06:27:55.285Z,100956.27
2018-08-23T06:29:00.765Z,100954.10
2018-08-23T06:30:06.943Z,100958.91
2018-08-23T06:31:12.512Z,100955.22
2018-08-23T06:32:18.936Z,100953.99
2018-08-23T06:33:41.013Z,100950.38
2018-08-23T06:34:53.300Z,100950.61
2018-08-23T06:35:58.825Z,100952.34
2018-08-23T06:37:04.789Z,100949.94
2018-08-23T06:38:10.213Z,100949.75
2018-08-23T06:39:15.718Z,100949.16
2018-08-23T06:40:21.290Z,100944.63
2018-08-23T06:41:26.790Z,100945.64
2018-08-23T06:42:46.399Z,100947.85
2018-08-23T06:43:51.897Z,100943.52
2018-08-23T06:44:57.353Z,100939.42
2018-08-23T06:46:03.403Z,100942.60
2018-08-23T06:47:10.326Z,100940.95
2018-08-23T06:48:15.802Z,100944.63
2018-08-23T06:49:21.268Z,100946.30
2018-08-23T06:50:27.150Z,100944.76
2018-08-23T06:51:32.633Z,100942.62
2018-08-23T06:52:43.418Z,100940.80
2018-08-23T06:53:52.776Z,100939.73
2018-08-23T06:54:58.241Z,100930.64
2018-08-23T06:56:03.715Z,100937.91
2018-08-23T06:57:09.767Z,100930.67
2018-08-23T06:58:15.403Z,100937.27
2018-08-23T06:59:20.962Z,100934.85
2018-08-23T07:00:27.032Z,100936.80
2018-08-23T07:01:39.292Z,100939.14
2018-08-23T07:02:47.920Z,100942.49
2018-08-23T07:03:58.126Z,100939.59
2018-08-23T07:05:03.631Z,100944.44
2018-08-23T07:06:09.183Z,100944.47
2018-08-23T07:07:18.137Z,100938.22
2018-08-23T07:08:24.897Z,100942.84
2018-08-23T07:09:33.041Z,100943.89
2018-08-23T07:10:38.537Z,100948.52
2018-08-23T07:11:44.357Z,100948.42
2018-08-23T07:12:50.195Z,100951.01
2018-08-23T07:14:00.893Z,100947.45
2018-08-23T07:15:06.657Z,100943.27
2018-08-23T07:16:12.378Z,100951.06
2018-08-23T07:17:22.947Z,100945.72
2018-08-23T07:18:29.876Z,100946.68
2018-08-23T07:19:35.334Z,100946.94
2018-08-23T07:20:40.900Z,100947.96
2018-08-23T07:21:46.484Z,100946.45
2018-08-23T07:22:51.961Z,100949.13
2018-08-23T07:23:57.435Z,100946.89
2018-08-23T07:25:02.919Z,100951.25
2018-08-23T07:26:08.436Z,100953.45
2018-08-23T07:27:15.110Z,100955.27
2018-08-23T07:28:20.862Z,100953.92
2018-08-23T07:29:26.350Z,100961.97
2018-08-23T07:30:31.970Z,100953.26
2018-08-23T07:31:42.025Z,100952.02
2018-08-23T07:32:49.028Z,100956.84
2018-08-23T07:33:54.493Z,100956.56
2018-08-23T07:35:05.729Z,100951.82
2018-08-23T07:36:25.123Z,100957.48
2018-08-23T07:37:31.632Z,100950.59
2018-08-23T07:38:37.153Z,100954.70
2018-08-23T07:39:46.700Z,100950.05
2018-08-23T07:40:52.349Z,100949.37
2018-08-23T07:41:57.839Z,100947.00
2018-08-23T07:43:03.748Z,100945.75
2018-08-23T07:44:09.170Z,100949.96
2018-08-23T07:45:14.873Z,100948.41
2018-08-23T07:46:20.398Z,100949.42
2018-08-23T07:47:26.166Z,100949.17
2018-08-23T07:48:31.775Z,100945.83
2018-08-23T07:49:37.280Z,100946.75
2018-08-23T07:50:42.691Z,100944.88
2018-08-23T07:51:48.240Z,100942.95
2018-08-23T07:52:54.634Z,100942.90
2018-08-23T07:54:04.208Z,100941.25
2018-08-23T07:55:09.814Z,100940.83
2018-08-23T07:56:25.105Z,100943.47
2018-08-23T07:57:33.470Z,100942.11
2018-08-23T07:58:39.062Z,100943.56
2018-08-23T07:59:44.681Z,100944.83
2018-08-23T08:00:50.335Z,100947.28
2018-08-23T08:01:55.850Z,100950.98
2018-08-23T08:03:01.392Z,100949.86
2018-08-23T08:04:10.909Z,100950.86
2018-08-23T08:05:17.159Z,100943.98
2018-08-23T08:06:23.802Z,100947.09
2018-08-23T08:07:31.491Z,100947.40
2018-08-23T08:08:38.025Z,100949.46
2018-08-23T08:09:44.111Z,100953.24
2018-08-23T08:10:49.832Z,100950.84
2018-08-23T08:12:01.684Z,100954.89
2018-08-23T08:13:07.369Z,100953.69
2018-08-23T08:14:18.009Z,100950.90
2018-08-23T08:15:23.649Z,100954.38
2018-08-23T08:16:32.989Z,100949.59
2018-08-23T08:17:38.652Z,100951.79
2018-08-23T08:18:44.154Z,100952.06
2018-08-23T08:19:58.821Z,100957.42
2018-08-23T08:21:04.819Z,100959.41
2018-08-23T08:22:10.402Z,100956.65
2018-08-23T08:23:17.225Z,100957.02
2018-08-23T08:24:22.737Z,100948.83
2018-08-23T08:25:28.187Z,100958.14
2018-08-23T08:26:33.861Z,100954.22
2018-08-23T08:27:40.282Z,100958.14
2018-08-23T08:28:45.892Z,100957.79
2018-08-23T08:29:51.409Z,100953.98
2018-08-23T08:30:59.699Z,100958.09
2018-08-23T08:32:05.305Z,100949.58
2018-08-23T08:33:13.871Z,100956.84
2018-08-23T08:34:19.521Z,100952.83
2018-08-23T08:35:24.990Z,100954.98
2018-08-23T08:36:31.717Z,100957.38
2018-08-23T08:37:37.212Z,100959.17
2018-08-23T08:38:42.734Z,100953.78
2018-08-23T08:39:48.272Z,100954.96
2018-08-23T08:40:54.793Z,100945.39
2018-08-23T08:42:00.910Z,100951.20
2018-08-23T08:43:07.028Z,100944.91
2018-08-23T08:44:12.959Z,100946.39
2018-08-23T08:45:18.571Z,100947.23
2018-08-23T08:46:24.206Z,100947.34
2018-08-23T08:47:29.666Z,100939.97
2018-08-23T08:48:35.986Z,100946.07
2018-08-23T08:49:41.869Z,100940.61
2018-08-23T08:51:05.898Z,100941.24
2018-08-23T08:52:11.488Z,100936.45
2018-08-23T08:53:16.997Z,100935.41
2018-08-23T08:54:23.431Z,100942.30
2018-08-23T08:55:29.246Z,100942.06
2018-08-23T08:56:41.502Z,100939.45
2018-08-23T08:57:47.951Z,100940.12
2018-08-23T08:58:53.968Z,100939.86
2018-08-23T08:59:59.803Z,100938.06
2018-08-23T09:01:05.864Z,100938.17
2018-08-23T09:02:11.270Z,100930.31
2018-08-23T09:03:17.010Z,100932.33
2018-08-23T09:04:27.597Z,100930.31
2018-08-23T09:05:33.151Z,100934.95
2018-08-23T09:06:45.901Z,100926.55
2018-08-23T09:07:51.489Z,100931.52
2018-08-23T09:08:56.972Z,100931.89
2018-08-23T09:10:02.560Z,100935.66
2018-08-23T09:11:08.226Z,100933.72
2018-08-23T09:12:14.536Z,100934.23
2018-08-23T09:13:21.017Z,100935.66
2018-08-23T09:14:26.993Z,100933.64
2018-08-23T09:15:32.495Z,100933.31
2018-08-23T09:16:37.960Z,100930.09
2018-08-23T09:17:44.809Z,100924.48
2018-08-23T09:19:02.128Z,100925.79
2018-08-23T09:20:14.185Z,100929.48
2018-08-23T09:21:19.873Z,100924.96
2018-08-23T09:22:25.384Z,100923.31
2018-08-23T09:23:30.873Z,100924.27
2018-08-23T09:24:37.119Z,100919.31
2018-08-23T09:25:43.729Z,100913.24
2018-08-23T09:26:49.902Z,100924.42
2018-08-23T09:27:55.345Z,100917.27
2018-08-23T09:29:00.847Z,100913.00
2018-08-23T09:30:11.566Z,100919.20
2018-08-23T09:31:17.515Z,100914.06
2018-08-23T09:32:28.225Z,100915.22
2018-08-23T09:33:33.762Z,100918.05
2018-08-23T09:34:40.316Z,100918.11
2018-08-23T09:35:45.905Z,100917.84
2018-08-23T09:36:51.810Z,100921.19
2018-08-23T09:37:58.408Z,100921.30
2018-08-23T09:39:04.001Z,100921.16
2018-08-23T09:40:09.891Z,100916.55
2018-08-23T09:41:15.553Z,100920.12
2018-08-23T09:42:21.071Z,100919.75
2018-08-23T09:43:26.600Z,100924.19
2018-08-23T09:44:32.036Z,100917.13
2018-08-23T09:45:38.539Z,100918.17
2018-08-23T09:46:52.814Z,100917.59
2018-08-23T09:47:58.210Z,100908.41
2018-08-23T09:49:03.752Z,100911.65
2018-08-23T09:50:09.321Z,100910.84
2018-08-23T09:51:20.188Z,100910.15
2018-08-23T09:52:30.742Z,100910.14
2018-08-23T09:53:36.182Z,100911.17
2018-08-23T09:54:41.612Z,100911.18
2018-08-23T09:55:48.848Z,100914.84
2018-08-23T09:56:54.477Z,100910.70
2018-08-23T09:58:00.370Z,100909.85
2018-08-23T09:59:05.853Z,100910.59
2018-08-23T10:00:15.538Z,100904.84
2018-08-23T10:01:26.285Z,100906.64
2018-08-23T10:02:37.004Z,100903.17
2018-08-23T10:03:47.558Z,100902.61
2018-08-23T10:04:56.394Z,100902.70
2018-08-23T10:07:04.977Z,100904.13
2018-08-23T10:08:15.851Z,100894.77
2018-08-23T10:09:23.545Z,100898.33
2018-08-23T10:10:34.098Z,100897.52
2018-08-23T10:11:44.745Z,100892.17
2018-08-23T10:12:55.410Z,100893.70
2018-08-23T10:14:06.009Z,100896.82
2018-08-23T10:15:16.720Z,100893.95
2018-08-23T10:16:27.485Z,100888.56
2018-08-23T10:17:38.090Z,100894.77
2018-08-23T10:18:48.906Z,100895.72
2018-08-23T10:19:59.497Z,100894.06
2018-08-23T10:21:05.108Z,100894.91
2018-08-23T10:22:15.722Z,100889.06
2018-08-23T10:23:24.078Z,100887.50
2018-08-23T10:24:33.161Z,100896.45
2018-08-23T10:25:44.560Z,100896.82
2018-08-23T10:26:50.219Z,100897.75
2018-08-23T10:27:55.750Z,100893.58
2018-08-23T10:29:01.233Z,100891.06
2018-08-23T10:30:06.841Z,100892.88
2018-08-23T10:31:12.399Z,100888.81
2018-08-23T10:32:17.964Z,100885.86
2018-08-23T10:33:23.497Z,100892.49
2018-08-23T10:34:29.062Z,100885.34
2018-08-23T10:35:34.973Z,100892.45
2018-08-23T10:36:40.474Z,100890.22
2018-08-23T10:37:46.006Z,100886.28
2018-08-23T10:38:51.529Z,100879.52
2018-08-23T10:39:57.055Z,100884.11
2018-08-23T10:41:05.182Z,100878.42
2018-08-23T10:42:17.886Z,100888.79
2018-08-23T10:43:28.648Z,100882.25
2018-08-23T10:44:34.191Z,100890.10
2018-08-23T10:45:40.263Z,100884.97
2018-08-23T10:46:51.551Z,100882.25
2018-08-23T10:48:02.261Z,100880.81
2018-08-23T10:49:07.812Z,100881.19
2018-08-23T10:50:13.352Z,100880.11
2018-08-23T10:51:18.841Z,100884.64
2018-08-23T10:52:24.397Z,100886.77
2018-08-23T10:53:29.818Z,100881.30
2018-08-23T10:54:35.665Z,100880.00
2018-08-23T10:55:41.461Z,100880.11
2018-08-23T10:56:47.037Z,100881.64
2018-08-23T10:57:52.737Z,100880.00
2018-08-23T10:58:58.196Z,100880.33
2018-08-23T11:00:03.907Z,100885.75
2018-08-23T11:01:09.374Z,100882.13
2018-08-23T11:02:15.058Z,100881.30
2018-08-23T11:03:20.654Z,100885.30
2018-08-23T11:04:26.140Z,100877.94
2018-08-23T11:05:31.606Z,100884.37
2018-08-23T11:06:41.230Z,100875.44
2018-08-23T11:07:51.981Z,100885.42
2018-08-23T11:09:02.638Z,100876.89
2018-08-23T11:10:13.294Z,100881.42
2018-08-23T11:11:23.866Z,100882.84
2018-08-23T11:12:35.360Z,100878.34
2018-08-23T11:13:48.099Z,100881.70
2018-08-23T11:14:53.605Z,100882.03
2018-08-23T11:16:04.177Z,100883.70
2018-08-23T11:17:15.130Z,100877.64
2018-08-23T11:18:25.828Z,100871.09
2018-08-23T11:20:39.001Z,100877.87
2018-08-23T11:21:44.453Z,100879.89
2018-08-23T11:22:49.923Z,100876.31
2018-08-23T11:23:55.505Z,100871.05
2018-08-23T11:25:01.322Z,100874.47
2018-08-23T11:26:06.832Z,100873.36
2018-08-23T11:27:12.321Z,100875.98
2018-08-23T11:28:22.405Z,100872.75
2018-08-23T11:29:28.183Z,100875.19
2018-08-23T11:30:33.714Z,100875.48
2018-08-23T11:31:39.393Z,100877.00
2018-08-23T11:32:45.373Z,100873.28
2018-08-23T11:33:50.862Z,100877.44
2018-08-23T11:34:56.478Z,100872.80
2018-08-23T11:36:01.954Z,100865.73
2018-08-23T11:37:07.497Z,100879.61
2018-08-23T11:38:13.025Z,100868.96
2018-08-23T11:39:18.966Z,100871.73
2018-08-23T11:40:24.437Z,100867.65
2018-08-23T11:41:30.055Z,100868.50
2018-08-23T11:42:35.635Z,100865.78
2018-08-23T11:43:41.622Z,100864.11
2018-08-23T11:44:47.161Z,100869.33
2018-08-23T11:46:26.277Z,100864.02
2018-08-23T11:47:31.733Z,100866.52
2018-08-23T11:48:37.241Z,100867.49
2018-08-23T11:49:42.742Z,100867.12
2018-08-23T11:50:48.298Z,100864.32
2018-08-23T11:51:54.119Z,100871.88
2018-08-23T11:52:59.703Z,100866.20
2018-08-23T11:54:05.233Z,100869.04
2018-08-23T11:55:10.687Z,100876.52
2018-08-23T11:56:16.357Z,100870.05
2018-08-23T11:57:21.883Z,100871.16
2018-08-23T11:58:27.370Z,100872.34
2018-08-23T11:59:32.914Z,100871.98
2018-08-23T12:00:38.466Z,100871.77
2018-08-23T12:01:44.094Z,100869.86
2018-08-23T12:02:49.941Z,100871.88
2018-08-23T12:03:55.466Z,100865.36
2018-08-23T12:05:01.794Z,100865.03
2018-08-23T12:06:08.717Z,100872.02
2018-08-23T12:07:14.198Z,100870.00
2018-08-23T12:08:19.778Z,100869.30
2018-08-23T12:09:30.541Z,100878.94
2018-08-23T12:10:36.023Z,100871.28
2018-08-23T12:11:41.433Z,100879.80
2018-08-23T12:12:48.497Z,100866.77
2018-08-23T12:13:53.937Z,100872.56
2018-08-23T12:15:03.144Z,100875.19
2018-08-23T12:16:10.704Z,100864.28
2018-08-23T12:17:17.075Z,100863.95
2018-08-23T12:18:22.848Z,100862.02
2018-08-23T12:19:28.248Z,100864.70
2018-08-23T12:20:33.773Z,100863.80
2018-08-23T12:21:39.241Z,100858.91
2018-08-23T12:22:44.745Z,100860.47
2018-08-23T12:23:50.259Z,100862.44
2018-08-23T12:24:55.778Z,100856.03
2018-08-23T12:26:01.503Z,100856.32
2018-08-23T12:27:06.899Z,100844.16
2018-08-23T12:28:17.607Z,100845.77
2018-08-23T12:29:23.163Z,100846.73
2018-08-23T12:30:28.774Z,100850.60
2018-08-23T12:31:34.245Z,100848.52
2018-08-23T12:32:39.709Z,100844.67
2018-08-23T12:33:45.778Z,100846.04
2018-08-23T12:34:52.431Z,100847.61
2018-08-23T12:35:58.010Z,100844.61
2018-08-23T12:37:08.678Z,100841.55
2018-08-23T12:39:25.563Z,100847.91
2018-08-23T12:40:37.667Z,100836.58
2018-08-23T12:41:49.987Z,100843.28
2018-08-23T12:42:55.562Z,100831.58
2018-08-23T12:44:01.022Z,100831.36
2018-08-23T12:45:06.565Z,100827.87
2018-08-23T12:46:13.228Z,100838.64
2018-08-23T12:47:18.746Z,100832.38
2018-08-23T12:48:24.234Z,100830.69
2018-08-23T12:49:29.972Z,100822.93